sensor_id;sensor_type;location;lat;lon;timestamp;P1;durP1;ratioP1;P2;durP2;ratioP2
48516;SDS011;34310;51.904;4.256;2023-07-13T00:00:39;4.95;;;1.50;;
48516;SDS011;34310;51.904;4.256;2023-07-13T00:03:06;4.55;;;1.50;;
48516;SDS011;34310;51.904;4.256;2023-07-13T00:05:33;5.38;;;1.67;;
48516;SDS011;34310;51.904;4.256;2023-07-13T00:07:59;4.13;;;1.80;;
48516;SDS011;34310;51.904;4.256;2023-07-13T00:10:26;4.20;;;1.27;;
48516;SDS011;34310;51.904;4.256;2023-07-13T00:12:52;3.00;;;1.25;;
48516;SDS011;34310;51.904;4.256;2023-07-13T00:15:21;4.15;;;1.65;;
48516;SDS011;34310;51.904;4.256;2023-07-13T00:17:50;3.83;;;1.48;;
48516;SDS011;34310;51.904;4.256;2023-07-13T00:20:18;5.18;;;1.60;;
48516;SDS011;34310;51.904;4.256;2023-07-13T00:22:46;5.57;;;1.85;;
48516;SDS011;34310;51.904;4.256;2023-07-13T00:25:13;4.78;;;1.80;;
48516;SDS011;34310;51.904;4.256;2023-07-13T00:27:43;4.53;;;1.65;;
48516;SDS011;34310;51.904;4.256;2023-07-13T00:30:10;5.00;;;1.70;;
48516;SDS011;34310;51.904;4.256;2023-07-13T00:32:37;4.40;;;1.48;;
48516;SDS011;34310;51.904;4.256;2023-07-13T00:35:04;5.53;;;1.80;;
48516;SDS011;34310;51.904;4.256;2023-07-13T00:37:31;4.28;;;1.55;;
48516;SDS011;34310;51.904;4.256;2023-07-13T00:39:58;4.75;;;1.70;;
48516;SDS011;34310;51.904;4.256;2023-07-13T00:42:24;3.50;;;1.45;;
48516;SDS011;34310;51.904;4.256;2023-07-13T00:45:04;4.80;;;1.67;;
48516;SDS011;34310;51.904;4.256;2023-07-13T00:47:33;3.95;;;1.50;;
48516;SDS011;34310;51.904;4.256;2023-07-13T00:50:00;4.28;;;1.65;;
48516;SDS011;34310;51.904;4.256;2023-07-13T00:52:27;4.07;;;1.60;;
48516;SDS011;34310;51.904;4.256;2023-07-13T00:54:54;4.10;;;1.42;;
48516;SDS011;34310;51.904;4.256;2023-07-13T00:57:22;3.90;;;1.35;;
48516;SDS011;34310;51.904;4.256;2023-07-13T00:59:50;3.60;;;1.42;;
48516;SDS011;34310;51.904;4.256;2023-07-13T01:02:20;3.88;;;1.67;;
48516;SDS011;34310;51.904;4.256;2023-07-13T01:04:47;2.75;;;1.10;;
48516;SDS011;34310;51.904;4.256;2023-07-13T01:07:14;4.00;;;1.60;;
48516;SDS011;34310;51.904;4.256;2023-07-13T01:09:40;3.15;;;1.55;;
48516;SDS011;34310;51.904;4.256;2023-07-13T01:12:07;4.20;;;1.35;;
48516;SDS011;34310;51.904;4.256;2023-07-13T01:14:34;3.85;;;1.23;;
48516;SDS011;34310;51.904;4.256;2023-07-13T01:17:00;4.93;;;1.40;;
48516;SDS011;34310;51.904;4.256;2023-07-13T01:19:33;3.45;;;1.40;;
48516;SDS011;34310;51.904;4.256;2023-07-13T01:22:04;3.55;;;1.33;;
48516;SDS011;34310;51.904;4.256;2023-07-13T01:24:32;3.10;;;1.27;;
48516;SDS011;34310;51.904;4.256;2023-07-13T01:26:58;2.92;;;1.23;;
48516;SDS011;34310;51.904;4.256;2023-07-13T01:29:25;3.95;;;1.13;;
48516;SDS011;34310;51.904;4.256;2023-07-13T01:31:51;3.20;;;1.52;;
48516;SDS011;34310;51.904;4.256;2023-07-13T01:34:18;3.92;;;1.27;;
48516;SDS011;34310;51.904;4.256;2023-07-13T01:36:44;2.72;;;1.02;;
48516;SDS011;34310;51.904;4.256;2023-07-13T01:39:11;3.13;;;1.30;;
48516;SDS011;34310;51.904;4.256;2023-07-13T01:41:37;1.85;;;0.93;;
48516;SDS011;34310;51.904;4.256;2023-07-13T01:44:04;2.25;;;1.10;;
48516;SDS011;34310;51.904;4.256;2023-07-13T01:46:31;1.95;;;0.98;;
48516;SDS011;34310;51.904;4.256;2023-07-13T01:48:57;2.67;;;1.05;;
48516;SDS011;34310;51.904;4.256;2023-07-13T01:51:24;2.60;;;1.15;;
48516;SDS011;34310;51.904;4.256;2023-07-13T01:53:50;2.85;;;1.35;;
48516;SDS011;34310;51.904;4.256;2023-07-13T01:56:17;1.92;;;1.10;;
48516;SDS011;34310;51.904;4.256;2023-07-13T01:58:44;3.78;;;1.05;;
48516;SDS011;34310;51.904;4.256;2023-07-13T02:01:11;1.75;;;0.82;;
48516;SDS011;34310;51.904;4.256;2023-07-13T02:03:38;2.05;;;0.93;;
48516;SDS011;34310;51.904;4.256;2023-07-13T02:06:04;2.85;;;0.90;;
48516;SDS011;34310;51.904;4.256;2023-07-13T02:08:32;1.60;;;0.95;;
48516;SDS011;34310;51.904;4.256;2023-07-13T02:10:59;3.17;;;1.20;;
48516;SDS011;34310;51.904;4.256;2023-07-13T02:13:26;3.80;;;1.00;;
48516;SDS011;34310;51.904;4.256;2023-07-13T02:15:53;2.53;;;1.10;;
48516;SDS011;34310;51.904;4.256;2023-07-13T02:18:19;2.90;;;1.10;;
48516;SDS011;34310;51.904;4.256;2023-07-13T02:20:46;2.55;;;1.20;;
48516;SDS011;34310;51.904;4.256;2023-07-13T02:23:12;3.72;;;1.30;;
48516;SDS011;34310;51.904;4.256;2023-07-13T02:25:39;3.03;;;1.02;;
48516;SDS011;34310;51.904;4.256;2023-07-13T02:28:05;2.72;;;1.17;;
48516;SDS011;34310;51.904;4.256;2023-07-13T02:30:32;2.17;;;0.90;;
48516;SDS011;34310;51.904;4.256;2023-07-13T02:33:00;3.33;;;1.35;;
48516;SDS011;34310;51.904;4.256;2023-07-13T02:35:27;3.33;;;1.30;;
48516;SDS011;34310;51.904;4.256;2023-07-13T02:37:54;1.98;;;0.95;;
48516;SDS011;34310;51.904;4.256;2023-07-13T02:40:20;2.97;;;1.10;;
48516;SDS011;34310;51.904;4.256;2023-07-13T02:42:47;4.88;;;1.50;;
48516;SDS011;34310;51.904;4.256;2023-07-13T02:45:13;3.20;;;1.27;;
48516;SDS011;34310;51.904;4.256;2023-07-13T02:47:40;2.90;;;1.17;;
48516;SDS011;34310;51.904;4.256;2023-07-13T02:50:08;4.60;;;1.40;;
48516;SDS011;34310;51.904;4.256;2023-07-13T02:52:35;3.03;;;1.23;;
48516;SDS011;34310;51.904;4.256;2023-07-13T02:55:01;3.05;;;1.30;;
48516;SDS011;34310;51.904;4.256;2023-07-13T02:57:28;3.75;;;1.38;;
48516;SDS011;34310;51.904;4.256;2023-07-13T02:59:55;3.78;;;1.50;;
48516;SDS011;34310;51.904;4.256;2023-07-13T03:02:21;2.38;;;1.30;;
48516;SDS011;34310;51.904;4.256;2023-07-13T03:04:48;4.43;;;1.30;;
48516;SDS011;34310;51.904;4.256;2023-07-13T03:07:14;3.75;;;1.67;;
48516;SDS011;34310;51.904;4.256;2023-07-13T03:09:41;3.58;;;1.58;;
48516;SDS011;34310;51.904;4.256;2023-07-13T03:12:07;3.03;;;1.40;;
48516;SDS011;34310;51.904;4.256;2023-07-13T03:14:34;2.92;;;1.23;;
48516;SDS011;34310;51.904;4.256;2023-07-13T03:17:00;5.10;;;1.73;;
48516;SDS011;34310;51.904;4.256;2023-07-13T03:19:27;4.00;;;1.60;;
48516;SDS011;34310;51.904;4.256;2023-07-13T03:21:53;3.95;;;1.58;;
48516;SDS011;34310;51.904;4.256;2023-07-13T03:24:20;2.97;;;1.50;;
48516;SDS011;34310;51.904;4.256;2023-07-13T03:26:46;3.38;;;1.48;;
48516;SDS011;34310;51.904;4.256;2023-07-13T03:29:13;3.20;;;1.70;;
48516;SDS011;34310;51.904;4.256;2023-07-13T03:31:39;2.85;;;1.33;;
48516;SDS011;34310;51.904;4.256;2023-07-13T03:34:06;4.90;;;1.50;;
48516;SDS011;34310;51.904;4.256;2023-07-13T03:36:33;3.80;;;1.60;;
48516;SDS011;34310;51.904;4.256;2023-07-13T03:39:00;2.55;;;1.30;;
48516;SDS011;34310;51.904;4.256;2023-07-13T03:41:29;4.03;;;1.30;;
48516;SDS011;34310;51.904;4.256;2023-07-13T03:43:56;3.85;;;1.45;;
48516;SDS011;34310;51.904;4.256;2023-07-13T03:46:22;3.80;;;1.42;;
48516;SDS011;34310;51.904;4.256;2023-07-13T03:48:49;3.00;;;1.27;;
48516;SDS011;34310;51.904;4.256;2023-07-13T03:51:15;2.97;;;1.33;;
48516;SDS011;34310;51.904;4.256;2023-07-13T03:53:43;2.92;;;1.10;;
48516;SDS011;34310;51.904;4.256;2023-07-13T03:56:11;2.95;;;1.23;;
48516;SDS011;34310;51.904;4.256;2023-07-13T03:58:39;2.22;;;1.17;;
48516;SDS011;34310;51.904;4.256;2023-07-13T04:01:07;3.28;;;1.40;;
48516;SDS011;34310;51.904;4.256;2023-07-13T04:03:35;3.38;;;1.38;;
48516;SDS011;34310;51.904;4.256;2023-07-13T04:06:03;3.35;;;1.60;;
48516;SDS011;34310;51.904;4.256;2023-07-13T04:08:34;2.90;;;1.20;;
48516;SDS011;34310;51.904;4.256;2023-07-13T04:11:03;2.55;;;1.20;;
48516;SDS011;34310;51.904;4.256;2023-07-13T04:13:30;3.08;;;1.27;;
48516;SDS011;34310;51.904;4.256;2023-07-13T04:15:57;2.45;;;1.10;;
48516;SDS011;34310;51.904;4.256;2023-07-13T04:18:24;3.03;;;1.20;;
48516;SDS011;34310;51.904;4.256;2023-07-13T04:20:50;2.75;;;1.23;;
48516;SDS011;34310;51.904;4.256;2023-07-13T04:23:17;3.88;;;1.48;;
48516;SDS011;34310;51.904;4.256;2023-07-13T04:25:48;3.55;;;1.48;;
48516;SDS011;34310;51.904;4.256;2023-07-13T04:28:17;3.17;;;1.60;;
48516;SDS011;34310;51.904;4.256;2023-07-13T04:30:44;2.42;;;1.20;;
48516;SDS011;34310;51.904;4.256;2023-07-13T04:33:11;2.42;;;1.40;;
48516;SDS011;34310;51.904;4.256;2023-07-13T04:35:37;3.22;;;1.38;;
48516;SDS011;34310;51.904;4.256;2023-07-13T04:38:04;2.22;;;1.30;;
48516;SDS011;34310;51.904;4.256;2023-07-13T04:40:31;1.90;;;1.10;;
48516;SDS011;34310;51.904;4.256;2023-07-13T04:42:57;2.38;;;1.23;;
48516;SDS011;34310;51.904;4.256;2023-07-13T04:45:24;2.20;;;1.10;;
48516;SDS011;34310;51.904;4.256;2023-07-13T04:47:50;2.35;;;1.13;;
48516;SDS011;34310;51.904;4.256;2023-07-13T04:50:17;2.80;;;1.33;;
48516;SDS011;34310;51.904;4.256;2023-07-13T04:52:44;3.65;;;1.45;;
48516;SDS011;34310;51.904;4.256;2023-07-13T04:55:10;3.72;;;1.48;;
48516;SDS011;34310;51.904;4.256;2023-07-13T04:57:37;2.75;;;1.25;;
48516;SDS011;34310;51.904;4.256;2023-07-13T05:00:04;2.33;;;1.30;;
48516;SDS011;34310;51.904;4.256;2023-07-13T05:02:31;2.65;;;1.20;;
48516;SDS011;34310;51.904;4.256;2023-07-13T05:04:57;2.67;;;1.42;;
48516;SDS011;34310;51.904;4.256;2023-07-13T05:07:25;2.17;;;1.10;;
48516;SDS011;34310;51.904;4.256;2023-07-13T05:09:52;2.85;;;1.27;;
48516;SDS011;34310;51.904;4.256;2023-07-13T05:12:18;2.58;;;1.30;;
48516;SDS011;34310;51.904;4.256;2023-07-13T05:14:45;3.38;;;1.48;;
48516;SDS011;34310;51.904;4.256;2023-07-13T05:17:11;2.15;;;1.17;;
48516;SDS011;34310;51.904;4.256;2023-07-13T05:19:38;2.17;;;1.23;;
48516;SDS011;34310;51.904;4.256;2023-07-13T05:22:04;2.25;;;1.52;;
48516;SDS011;34310;51.904;4.256;2023-07-13T05:24:31;3.13;;;1.40;;
48516;SDS011;34310;51.904;4.256;2023-07-13T05:26:58;1.90;;;1.00;;
48516;SDS011;34310;51.904;4.256;2023-07-13T05:29:24;2.58;;;1.30;;
48516;SDS011;34310;51.904;4.256;2023-07-13T05:31:51;1.77;;;1.10;;
48516;SDS011;34310;51.904;4.256;2023-07-13T05:34:17;3.75;;;1.42;;
48516;SDS011;34310;51.904;4.256;2023-07-13T05:36:44;1.80;;;1.02;;
48516;SDS011;34310;51.904;4.256;2023-07-13T05:39:10;1.60;;;1.10;;
48516;SDS011;34310;51.904;4.256;2023-07-13T05:41:37;1.95;;;1.20;;
48516;SDS011;34310;51.904;4.256;2023-07-13T05:44:04;3.63;;;1.50;;
48516;SDS011;34310;51.904;4.256;2023-07-13T05:46:30;2.38;;;1.30;;
48516;SDS011;34310;51.904;4.256;2023-07-13T05:48:57;2.92;;;1.38;;
48516;SDS011;34310;51.904;4.256;2023-07-13T05:51:23;2.05;;;1.20;;
48516;SDS011;34310;51.904;4.256;2023-07-13T05:53:50;2.42;;;1.33;;
48516;SDS011;34310;51.904;4.256;2023-07-13T05:56:16;2.63;;;1.23;;
48516;SDS011;34310;51.904;4.256;2023-07-13T05:58:43;3.70;;;1.20;;
48516;SDS011;34310;51.904;4.256;2023-07-13T06:01:10;2.50;;;1.33;;
48516;SDS011;34310;51.904;4.256;2023-07-13T06:03:39;3.38;;;1.42;;
48516;SDS011;34310;51.904;4.256;2023-07-13T06:06:07;2.60;;;1.10;;
48516;SDS011;34310;51.904;4.256;2023-07-13T06:08:35;2.63;;;1.40;;
48516;SDS011;34310;51.904;4.256;2023-07-13T06:11:10;4.95;;;1.50;;
48516;SDS011;34310;51.904;4.256;2023-07-13T06:13:40;5.03;;;1.70;;
48516;SDS011;34310;51.904;4.256;2023-07-13T06:16:06;4.88;;;1.67;;
48516;SDS011;34310;51.904;4.256;2023-07-13T06:18:33;3.63;;;1.63;;
48516;SDS011;34310;51.904;4.256;2023-07-13T06:21:00;4.45;;;1.40;;
48516;SDS011;34310;51.904;4.256;2023-07-13T06:23:31;3.80;;;1.60;;
48516;SDS011;34310;51.904;4.256;2023-07-13T06:25:58;2.78;;;1.38;;
48516;SDS011;34310;51.904;4.256;2023-07-13T06:28:24;3.88;;;1.63;;
48516;SDS011;34310;51.904;4.256;2023-07-13T06:30:51;9.82;;;1.65;;
48516;SDS011;34310;51.904;4.256;2023-07-13T06:33:17;3.75;;;1.40;;
48516;SDS011;34310;51.904;4.256;2023-07-13T06:35:44;5.25;;;1.33;;
48516;SDS011;34310;51.904;4.256;2023-07-13T06:38:10;3.20;;;1.30;;
48516;SDS011;34310;51.904;4.256;2023-07-13T06:40:37;2.67;;;1.33;;
48516;SDS011;34310;51.904;4.256;2023-07-13T06:43:03;1.60;;;1.10;;
48516;SDS011;34310;51.904;4.256;2023-07-13T06:45:30;4.80;;;1.40;;
48516;SDS011;34310;51.904;4.256;2023-07-13T06:47:56;2.40;;;1.50;;
48516;SDS011;34310;51.904;4.256;2023-07-13T06:50:23;2.85;;;1.38;;
48516;SDS011;34310;51.904;4.256;2023-07-13T06:52:49;3.83;;;1.30;;
48516;SDS011;34310;51.904;4.256;2023-07-13T06:55:16;4.22;;;1.40;;
48516;SDS011;34310;51.904;4.256;2023-07-13T06:57:42;2.90;;;1.52;;
48516;SDS011;34310;51.904;4.256;2023-07-13T07:00:09;4.60;;;1.50;;
48516;SDS011;34310;51.904;4.256;2023-07-13T07:02:36;2.72;;;1.30;;
48516;SDS011;34310;51.904;4.256;2023-07-13T07:05:03;2.08;;;1.30;;
48516;SDS011;34310;51.904;4.256;2023-07-13T07:07:29;1.85;;;1.15;;
48516;SDS011;34310;51.904;4.256;2023-07-13T07:09:56;2.25;;;1.25;;
48516;SDS011;34310;51.904;4.256;2023-07-13T07:12:22;3.47;;;1.33;;
48516;SDS011;34310;51.904;4.256;2023-07-13T07:14:49;3.08;;;1.10;;
48516;SDS011;34310;51.904;4.256;2023-07-13T07:17:15;2.78;;;1.48;;
48516;SDS011;34310;51.904;4.256;2023-07-13T07:19:42;2.45;;;1.25;;
48516;SDS011;34310;51.904;4.256;2023-07-13T07:22:08;1.67;;;1.10;;
48516;SDS011;34310;51.904;4.256;2023-07-13T07:24:35;1.98;;;1.13;;
48516;SDS011;34310;51.904;4.256;2023-07-13T07:27:01;1.85;;;1.05;;
48516;SDS011;34310;51.904;4.256;2023-07-13T07:29:31;1.83;;;1.10;;
48516;SDS011;34310;51.904;4.256;2023-07-13T07:32:00;2.53;;;1.17;;
48516;SDS011;34310;51.904;4.256;2023-07-13T07:34:31;2.55;;;1.10;;
48516;SDS011;34310;51.904;4.256;2023-07-13T07:36:59;1.90;;;1.20;;
48516;SDS011;34310;51.904;4.256;2023-07-13T07:39:29;2.92;;;1.20;;
48516;SDS011;34310;51.904;4.256;2023-07-13T07:41:56;3.08;;;1.40;;
48516;SDS011;34310;51.904;4.256;2023-07-13T07:44:23;3.63;;;1.20;;
48516;SDS011;34310;51.904;4.256;2023-07-13T07:46:49;2.80;;;1.30;;
48516;SDS011;34310;51.904;4.256;2023-07-13T07:49:16;2.75;;;1.10;;
48516;SDS011;34310;51.904;4.256;2023-07-13T07:51:42;2.53;;;1.15;;
48516;SDS011;34310;51.904;4.256;2023-07-13T07:54:09;2.22;;;1.00;;
48516;SDS011;34310;51.904;4.256;2023-07-13T07:56:40;3.35;;;1.10;;
48516;SDS011;34310;51.904;4.256;2023-07-13T07:59:09;1.60;;;1.02;;
48516;SDS011;34310;51.904;4.256;2023-07-13T08:01:38;2.65;;;1.45;;
48516;SDS011;34310;51.904;4.256;2023-07-13T08:04:08;1.15;;;0.98;;
48516;SDS011;34310;51.904;4.256;2023-07-13T08:06:54;3.10;;;1.17;;
48516;SDS011;34310;51.904;4.256;2023-07-13T08:09:21;1.20;;;1.00;;
48516;SDS011;34310;51.904;4.256;2023-07-13T08:11:47;1.58;;;0.90;;
48516;SDS011;34310;51.904;4.256;2023-07-13T08:14:17;1.75;;;1.00;;
48516;SDS011;34310;51.904;4.256;2023-07-13T08:16:43;1.85;;;1.13;;
48516;SDS011;34310;51.904;4.256;2023-07-13T08:19:10;1.67;;;1.08;;
48516;SDS011;34310;51.904;4.256;2023-07-13T08:21:36;2.22;;;1.23;;
48516;SDS011;34310;51.904;4.256;2023-07-13T08:24:03;1.23;;;1.02;;
48516;SDS011;34310;51.904;4.256;2023-07-13T08:26:30;1.35;;;0.90;;
48516;SDS011;34310;51.904;4.256;2023-07-13T08:28:56;1.83;;;1.05;;
48516;SDS011;34310;51.904;4.256;2023-07-13T08:31:23;2.25;;;1.00;;
48516;SDS011;34310;51.904;4.256;2023-07-13T08:33:49;2.42;;;1.00;;
48516;SDS011;34310;51.904;4.256;2023-07-13T08:36:16;1.58;;;1.08;;
48516;SDS011;34310;51.904;4.256;2023-07-13T08:38:42;2.30;;;1.20;;
48516;SDS011;34310;51.904;4.256;2023-07-13T08:41:11;1.98;;;1.10;;
48516;SDS011;34310;51.904;4.256;2023-07-13T08:43:47;2.10;;;1.20;;
48516;SDS011;34310;51.904;4.256;2023-07-13T08:46:19;1.08;;;0.95;;
48516;SDS011;34310;51.904;4.256;2023-07-13T08:49:02;1.77;;;1.00;;
48516;SDS011;34310;51.904;4.256;2023-07-13T08:51:39;2.33;;;1.25;;
48516;SDS011;34310;51.904;4.256;2023-07-13T08:54:22;2.35;;;1.13;;
48516;SDS011;34310;51.904;4.256;2023-07-13T08:56:52;1.63;;;1.33;;
48516;SDS011;34310;51.904;4.256;2023-07-13T08:59:21;1.92;;;1.00;;
48516;SDS011;34310;51.904;4.256;2023-07-13T09:02:28;2.05;;;1.00;;
48516;SDS011;34310;51.904;4.256;2023-07-13T09:05:01;1.73;;;1.27;;
48516;SDS011;34310;51.904;4.256;2023-07-13T09:17:55;1.85;;;1.10;;
48516;SDS011;34310;51.904;4.256;2023-07-13T09:20:46;1.83;;;1.10;;
48516;SDS011;34310;51.904;4.256;2023-07-13T09:23:17;1.80;;;1.20;;
48516;SDS011;34310;51.904;4.256;2023-07-13T09:25:47;1.67;;;1.10;;
48516;SDS011;34310;51.904;4.256;2023-07-13T09:28:20;2.20;;;1.20;;
48516;SDS011;34310;51.904;4.256;2023-07-13T09:33:16;2.42;;;1.20;;
48516;SDS011;34310;51.904;4.256;2023-07-13T09:35:43;2.50;;;1.10;;
48516;SDS011;34310;51.904;4.256;2023-07-13T09:38:17;2.65;;;1.27;;
48516;SDS011;34310;51.904;4.256;2023-07-13T09:40:49;1.77;;;1.10;;
48516;SDS011;34310;51.904;4.256;2023-07-13T09:46:28;1.40;;;1.10;;
48516;SDS011;34310;51.904;4.256;2023-07-13T09:48:55;2.20;;;1.30;;
48516;SDS011;34310;51.904;4.256;2023-07-13T09:51:22;1.75;;;1.10;;
48516;SDS011;34310;51.904;4.256;2023-07-13T09:53:48;2.25;;;1.10;;
48516;SDS011;34310;51.904;4.256;2023-07-13T09:56:19;2.00;;;1.00;;
48516;SDS011;34310;51.904;4.256;2023-07-13T09:58:47;2.55;;;1.23;;
48516;SDS011;34310;51.904;4.256;2023-07-13T10:01:14;2.00;;;1.20;;
48516;SDS011;34310;51.904;4.256;2023-07-13T10:03:51;2.05;;;1.30;;
48516;SDS011;34310;51.904;4.256;2023-07-13T10:06:21;1.50;;;1.10;;
48516;SDS011;34310;51.904;4.256;2023-07-13T10:08:51;1.83;;;1.10;;
48516;SDS011;34310;51.904;4.256;2023-07-13T10:11:19;1.13;;;1.00;;
48516;SDS011;34310;51.904;4.256;2023-07-13T10:13:55;1.33;;;1.10;;
48516;SDS011;34310;51.904;4.256;2023-07-13T10:16:33;1.33;;;1.00;;
48516;SDS011;34310;51.904;4.256;2023-07-13T10:19:05;2.13;;;1.17;;
48516;SDS011;34310;51.904;4.256;2023-07-13T10:21:54;2.08;;;1.20;;
48516;SDS011;34310;51.904;4.256;2023-07-13T10:24:27;1.40;;;1.20;;
48516;SDS011;34310;51.904;4.256;2023-07-13T10:27:09;1.70;;;1.10;;
48516;SDS011;34310;51.904;4.256;2023-07-13T10:32:16;1.75;;;1.17;;
48516;SDS011;34310;51.904;4.256;2023-07-13T10:34:48;3.20;;;1.20;;
48516;SDS011;34310;51.904;4.256;2023-07-13T10:37:49;2.60;;;1.30;;
48516;SDS011;34310;51.904;4.256;2023-07-13T10:41:11;1.98;;;1.10;;
48516;SDS011;34310;51.904;4.256;2023-07-13T10:43:28;1.67;;;1.10;;
48516;SDS011;34310;51.904;4.256;2023-07-13T10:46:06;1.13;;;0.95;;
48516;SDS011;34310;51.904;4.256;2023-07-13T10:48:34;1.85;;;1.15;;
48516;SDS011;34310;51.904;4.256;2023-07-13T10:51:03;1.52;;;1.30;;
48516;SDS011;34310;51.904;4.256;2023-07-13T10:53:36;2.05;;;1.20;;
48516;SDS011;34310;51.904;4.256;2023-07-13T10:56:04;1.73;;;1.30;;
48516;SDS011;34310;51.904;4.256;2023-07-13T10:58:38;2.35;;;1.25;;
48516;SDS011;34310;51.904;4.256;2023-07-13T11:03:34;1.88;;;1.27;;
48516;SDS011;34310;51.904;4.256;2023-07-13T11:06:04;1.65;;;1.13;;
48516;SDS011;34310;51.904;4.256;2023-07-13T11:08:51;1.08;;;0.93;;
48516;SDS011;34310;51.904;4.256;2023-07-13T11:18:51;2.25;;;1.17;;
48516;SDS011;34310;51.904;4.256;2023-07-13T11:21:34;1.70;;;1.10;;
48516;SDS011;34310;51.904;4.256;2023-07-13T11:24:12;1.40;;;1.20;;
48516;SDS011;34310;51.904;4.256;2023-07-13T11:31:51;1.17;;;0.90;;
48516;SDS011;34310;51.904;4.256;2023-07-13T11:34:27;1.67;;;1.15;;
48516;SDS011;34310;51.904;4.256;2023-07-13T11:36:56;1.42;;;1.10;;
48516;SDS011;34310;51.904;4.256;2023-07-13T11:42:00;1.58;;;1.20;;
48516;SDS011;34310;51.904;4.256;2023-07-13T11:44:30;1.13;;;1.02;;
48516;SDS011;34310;51.904;4.256;2023-07-13T11:46:59;2.45;;;1.25;;
48516;SDS011;34310;51.904;4.256;2023-07-13T11:49:43;2.20;;;1.25;;
48516;SDS011;34310;51.904;4.256;2023-07-13T11:52:12;1.40;;;1.15;;
48516;SDS011;34310;51.904;4.256;2023-07-13T11:54:48;1.42;;;1.20;;
48516;SDS011;34310;51.904;4.256;2023-07-13T11:57:27;2.33;;;1.23;;
48516;SDS011;34310;51.904;4.256;2023-07-13T11:59:56;2.17;;;1.10;;
48516;SDS011;34310;51.904;4.256;2023-07-13T12:05:03;1.80;;;1.00;;
48516;SDS011;34310;51.904;4.256;2023-07-13T12:07:32;1.80;;;1.10;;
48516;SDS011;34310;51.904;4.256;2023-07-13T12:10:03;2.17;;;1.17;;
48516;SDS011;34310;51.904;4.256;2023-07-13T12:12:53;1.65;;;1.00;;
48516;SDS011;34310;51.904;4.256;2023-07-13T12:15:26;1.60;;;1.00;;
48516;SDS011;34310;51.904;4.256;2023-07-13T12:17:57;1.75;;;1.00;;
48516;SDS011;34310;51.904;4.256;2023-07-13T12:20:25;1.02;;;0.88;;
48516;SDS011;34310;51.904;4.256;2023-07-13T12:22:55;1.25;;;0.82;;
48516;SDS011;34310;51.904;4.256;2023-07-13T12:25:22;0.90;;;0.90;;
48516;SDS011;34310;51.904;4.256;2023-07-13T12:27:55;1.40;;;1.10;;
48516;SDS011;34310;51.904;4.256;2023-07-13T12:30:26;1.27;;;0.80;;
48516;SDS011;34310;51.904;4.256;2023-07-13T12:33:15;1.08;;;0.90;;
48516;SDS011;34310;51.904;4.256;2023-07-13T12:35:47;1.00;;;0.90;;
48516;SDS011;34310;51.904;4.256;2023-07-13T12:38:15;1.40;;;1.00;;
48516;SDS011;34310;51.904;4.256;2023-07-13T12:40:42;1.30;;;0.90;;
48516;SDS011;34310;51.904;4.256;2023-07-13T12:43:12;1.50;;;0.90;;
48516;SDS011;34310;51.904;4.256;2023-07-13T12:45:56;2.53;;;0.95;;
48516;SDS011;34310;51.904;4.256;2023-07-13T12:48:24;1.35;;;0.98;;
48516;SDS011;34310;51.904;4.256;2023-07-13T12:51:11;1.30;;;1.00;;
48516;SDS011;34310;51.904;4.256;2023-07-13T12:53:43;2.78;;;1.00;;
48516;SDS011;34310;51.904;4.256;2023-07-13T12:56:19;1.60;;;1.00;;
48516;SDS011;34310;51.904;4.256;2023-07-13T12:58:48;0.82;;;0.77;;
48516;SDS011;34310;51.904;4.256;2023-07-13T13:01:16;1.48;;;1.00;;
48516;SDS011;34310;51.904;4.256;2023-07-13T13:03:47;2.78;;;1.17;;
48516;SDS011;34310;51.904;4.256;2023-07-13T13:08:43;1.40;;;1.17;;
48516;SDS011;34310;51.904;4.256;2023-07-13T13:11:10;2.10;;;1.02;;
48516;SDS011;34310;51.904;4.256;2023-07-13T13:13:36;1.33;;;1.10;;
48516;SDS011;34310;51.904;4.256;2023-07-13T13:16:11;1.65;;;1.05;;
48516;SDS011;34310;51.904;4.256;2023-07-13T13:18:41;1.55;;;0.90;;
48516;SDS011;34310;51.904;4.256;2023-07-13T13:21:08;1.77;;;0.93;;
48516;SDS011;34310;51.904;4.256;2023-07-13T13:23:35;1.08;;;0.95;;
48516;SDS011;34310;51.904;4.256;2023-07-13T13:26:02;1.35;;;0.90;;
48516;SDS011;34310;51.904;4.256;2023-07-13T13:28:29;1.58;;;0.90;;
48516;SDS011;34310;51.904;4.256;2023-07-13T13:30:57;2.67;;;1.40;;
48516;SDS011;34310;51.904;4.256;2023-07-13T13:33:27;6.45;;;1.40;;
48516;SDS011;34310;51.904;4.256;2023-07-13T13:35:53;2.80;;;1.02;;
48516;SDS011;34310;51.904;4.256;2023-07-13T13:38:21;5.80;;;1.00;;
48516;SDS011;34310;51.904;4.256;2023-07-13T13:40:51;2.55;;;1.00;;
48516;SDS011;34310;51.904;4.256;2023-07-13T13:43:20;2.15;;;1.00;;
48516;SDS011;34310;51.904;4.256;2023-07-13T13:45:49;2.80;;;1.02;;
48516;SDS011;34310;51.904;4.256;2023-07-13T13:48:16;2.38;;;1.00;;
48516;SDS011;34310;51.904;4.256;2023-07-13T13:50:46;1.90;;;0.80;;
48516;SDS011;34310;51.904;4.256;2023-07-13T13:53:13;2.55;;;1.17;;
48516;SDS011;34310;51.904;4.256;2023-07-13T13:55:40;2.92;;;1.10;;
48516;SDS011;34310;51.904;4.256;2023-07-13T13:58:09;3.75;;;1.30;;
48516;SDS011;34310;51.904;4.256;2023-07-13T14:00:37;1.98;;;1.00;;
48516;SDS011;34310;51.904;4.256;2023-07-13T14:03:08;1.35;;;0.80;;
48516;SDS011;34310;51.904;4.256;2023-07-13T14:05:43;2.55;;;1.10;;
48516;SDS011;34310;51.904;4.256;2023-07-13T14:08:14;1.10;;;0.80;;
48516;SDS011;34310;51.904;4.256;2023-07-13T14:10:42;1.48;;;0.98;;
48516;SDS011;34310;51.904;4.256;2023-07-13T14:13:16;2.55;;;0.90;;
48516;SDS011;34310;51.904;4.256;2023-07-13T14:15:43;2.28;;;1.27;;
48516;SDS011;34310;51.904;4.256;2023-07-13T14:18:09;1.73;;;1.10;;
48516;SDS011;34310;51.904;4.256;2023-07-13T14:20:36;2.00;;;1.25;;
48516;SDS011;34310;51.904;4.256;2023-07-13T14:23:02;1.35;;;1.10;;
48516;SDS011;34310;51.904;4.256;2023-07-13T14:25:29;1.50;;;1.20;;
48516;SDS011;34310;51.904;4.256;2023-07-13T14:27:56;1.83;;;1.30;;
48516;SDS011;34310;51.904;4.256;2023-07-13T14:30:25;1.75;;;1.20;;
48516;SDS011;34310;51.904;4.256;2023-07-13T14:32:51;1.52;;;1.20;;
48516;SDS011;34310;51.904;4.256;2023-07-13T14:35:18;2.15;;;1.33;;
48516;SDS011;34310;51.904;4.256;2023-07-13T14:37:47;1.50;;;1.33;;
48516;SDS011;34310;51.904;4.256;2023-07-13T14:40:15;1.35;;;1.20;;
48516;SDS011;34310;51.904;4.256;2023-07-13T14:42:44;1.48;;;1.20;;
48516;SDS011;34310;51.904;4.256;2023-07-13T14:45:14;2.95;;;1.55;;
48516;SDS011;34310;51.904;4.256;2023-07-13T14:47:42;1.90;;;1.70;;
48516;SDS011;34310;51.904;4.256;2023-07-13T14:50:20;2.33;;;1.80;;
48516;SDS011;34310;51.904;4.256;2023-07-13T14:52:50;2.20;;;1.50;;
48516;SDS011;34310;51.904;4.256;2023-07-13T14:55:17;2.00;;;1.58;;
48516;SDS011;34310;51.904;4.256;2023-07-13T14:57:45;2.45;;;1.70;;
48516;SDS011;34310;51.904;4.256;2023-07-13T15:00:13;2.20;;;1.60;;
48516;SDS011;34310;51.904;4.256;2023-07-13T15:02:41;3.10;;;1.83;;
48516;SDS011;34310;51.904;4.256;2023-07-13T15:05:18;2.53;;;1.95;;
48516;SDS011;34310;51.904;4.256;2023-07-13T15:07:46;3.47;;;2.20;;
48516;SDS011;34310;51.904;4.256;2023-07-13T15:10:23;1.70;;;1.60;;
48516;SDS011;34310;51.904;4.256;2023-07-13T15:12:51;2.45;;;2.00;;
48516;SDS011;34310;51.904;4.256;2023-07-13T15:15:18;3.05;;;2.08;;
48516;SDS011;34310;51.904;4.256;2023-07-13T15:17:46;2.05;;;1.85;;
48516;SDS011;34310;51.904;4.256;2023-07-13T15:20:18;3.67;;;1.90;;
48516;SDS011;34310;51.904;4.256;2023-07-13T15:22:49;2.97;;;2.00;;
48516;SDS011;34310;51.904;4.256;2023-07-13T15:25:19;3.83;;;1.95;;
48516;SDS011;34310;51.904;4.256;2023-07-13T15:27:51;2.33;;;1.90;;
48516;SDS011;34310;51.904;4.256;2023-07-13T15:30:21;2.80;;;2.00;;
48516;SDS011;34310;51.904;4.256;2023-07-13T15:32:48;2.88;;;1.85;;
48516;SDS011;34310;51.904;4.256;2023-07-13T15:35:19;2.60;;;1.98;;
48516;SDS011;34310;51.904;4.256;2023-07-13T15:37:47;2.20;;;1.92;;
48516;SDS011;34310;51.904;4.256;2023-07-13T15:40:14;2.70;;;2.08;;